Latest Coastal Weather Observations for Merimbula

IDN60701

Issued at 9:52 am EST Friday 26 August 2016 (issued every 10 minutes, with the page automatically refreshed every 10 minutes)

About coastal observations | Map of coastal stations | Coastal observations for NSW | Marine services | Other Formats
Station Details ID: 069147 Name: MERIMBULA AIRPORT AWS Lat: -36.91 Lon: 149.90 Height: 1.5 m
Data from the previous 72 hours. | See also: Recent months at Merimbula
Date/Time
EST
Temp
°C
Wind Pressure Rain since
9am
mm
Weather Cloud Vis
km
Sea
Height
m
Swell
Dir  Spd
kts
Gust
kts
hPa Trend Height
m
Period
s
Dir
26/09:30am 13.8 SW 9 15 1019.6 - 0.0 - - 10 - - - -
26/09:00am 12.8 SW 8 12 1019.4 - 0.0 - - 10 - - - -
26/08:30am 11.8 W 7 11 1019.4 - 0.0 - - 10 - - - -
26/08:00am 10.4 W 6 11 1019.2 - 0.0 - - 10 - - - -
26/07:30am 9.0 W 8 11 1019.1 - 0.0 - Partly cloudy 10 - - - -
26/07:00am 7.7 W 8 10 1018.6 - 0.0 - Partly cloudy 10 - - - -
26/06:30am 7.2 W 8 13 1018.3 - 0.0 - - 10 - - - -
26/06:00am 7.3 W 8 11 1017.9 - 0.0 - - 10 - - - -
26/05:30am 7.4 W 9 12 1017.6 - 0.0 - - 10 - - - -
26/05:00am 7.2 W 7 10 1017.3 - 0.0 - - 10 - - - -
26/04:30am 7.5 WSW 9 12 1016.9 - 0.0 - - 10 - - - -
26/04:00am 7.7 W 9 13 1016.6 - 0.0 - - 10 - - - -
26/03:30am 7.4 WSW 8 11 1016.4 - 0.0 - - 10 - - - -
26/03:00am 7.4 WSW 7 10 1016.2 - 0.0 - - 10 - - - -
26/02:30am 7.4 W 8 11 1016.2 - 0.0 - - 10 - - - -
26/02:00am 7.0 W 8 11 1016.3 - 0.0 - - 10 - - - -
26/01:30am 6.6 W 6 8 1016.6 - 0.0 - - 10 - - - -
26/01:00am 6.4 WNW 6 7 1016.6 - 0.0 - - 10 - - - -
26/12:30am 7.4 NW 5 6 1016.5 - 0.0 - - 10 - - - -
26/12:00am 8.3 W 6 9 1016.2 - 0.0 - - 10 - - - -
 
Date/Time
EST
Temp
°C
Wind Pressure Rain since
9am
mm
Weather Cloud Vis
km
Sea
Height
m
Swell
Dir  Spd
kts
Gust
kts
hPa Trend Height
m
Period
s
Dir
25/11:30pm 8.9 WSW 9 13 1015.9 - 0.0 - - 10 - - - -
25/11:00pm 8.9 WSW 8 13 1015.6 - 0.0 - - 10 - - - -
25/10:30pm 8.5 WSW 6 10 1015.3 - 0.0 - - 10 - - - -
25/10:00pm 8.4 WSW 7 11 1015.4 - 0.0 - - 10 - - - -
25/09:30pm 7.5 W 6 7 1015.3 - 0.0 - - 10 - - - -
25/09:00pm 8.4 WSW 5 8 1015.3 - 0.0 - Mostly cloudy 10 - - - -
25/08:30pm 8.9 SW 5 7 1015.3 - 0.0 - - 10 - - - -
25/08:00pm 9.1 WSW 8 12 1014.9 - 0.0 - - 10 - - - -
25/07:30pm 8.7 SW 5 7 1014.9 - 0.0 - - 10 - - - -
25/07:00pm 9.1 WSW 8 12 1014.5 - 0.0 - - 10 - - - -
25/06:30pm 9.5 SW 10 15 1013.9 - 0.0 - - 10 - - - -
25/06:00pm 9.8 SW 9 15 1013.3 - 0.0 - - 10 - - - -
25/05:30pm 10.6 WSW 8 14 1013.2 - 0.0 - Partly cloudy 10 - - - -
25/05:00pm 11.3 SW 11 20 1012.8 - 0.0 - Partly cloudy 10 - - - -
25/04:30pm 12.5 SSW 12 19 1012.0 - 0.0 - Partly cloudy 10 - - - -
25/04:00pm 14.0 S 9 15 1011.4 - 0.0 - Partly cloudy 10 - - - -
25/03:30pm 14.6 S 9 16 1011.0 - 0.0 - Partly cloudy 10 - - - -
25/03:00pm 14.7 SW 7 12 1010.9 - 0.0 - Partly cloudy 10 - - - -
25/02:30pm 14.7 SW 8 14 1010.6 - 0.0 - Partly cloudy 10 - - - -
25/02:00pm 15.1 WSW 8 15 1010.4 - 0.0 - Partly cloudy 10 - - - -
25/01:30pm 14.5 SW 7 11 1010.2 - 0.0 - Partly cloudy 10 - - - -
25/01:00pm 14.8 SW 8 12 1010.2 - 0.0 - - 10 - - - -
25/12:30pm 14.7 SW 11 15 1010.4 - 0.0 - Partly cloudy 10 - - - -
25/12:00pm 15.6 SSW 9 15 1010.6 - 0.0 - Mostly clear 10 - - - -
25/11:30am 15.1 SSW 9 15 1010.7 - 0.0 - - 10 - - - -
25/11:00am 15.1 W 9 15 1010.9 - 0.0 - - 10 - - - -
25/10:30am 14.4 W 9 14 1011.0 - 0.0 - - 10 - - - -
25/10:00am 13.3 WSW 11 18 1011.1 - 0.0 - - 10 - - - -
25/09:30am 12.6 WSW 11 17 1011.2 - 0.0 - - 10 - - - -
25/09:00am 11.9 WSW 8 12 1011.2 - 0.0 - - 10 - - - -
25/08:30am 10.7 WNW 7 10 1011.3 - 0.0 - - 10 - - - -
25/08:00am 9.6 WNW 7 10 1011.3 - 0.0 - - 10 - - - -
25/07:30am 6.2 SW 3 9 1011.1 - 0.0 - - 10 - - - -
25/07:00am 3.8 CALM 0 0 1010.8 - 0.0 - - 10 - - - -
25/06:30am 4.3 SW 2 4 1010.6 - 0.0 - - 10 - - - -
25/06:00am 4.8 W 4 6 1010.3 - 0.0 - Mostly cloudy 10 - - - -
25/05:30am 5.1 CALM 0 0 1010.0 - 0.0 - - 10 - - - -
25/05:00am 7.1 S 3 4 1009.8 - 0.0 - - 10 - - - -
25/04:30am 7.5 CALM 0 0 1009.6 - 0.0 - - 10 - - - -
25/04:00am 8.3 SSW 5 7 1009.5 - 0.0 - - 10 - - - -
25/03:30am 8.4 WSW 4 5 1009.6 - 0.0 - - 10 - - - -
25/03:00am 7.7 SW 3 5 1009.6 - 0.0 - Cloudy 10 - - - -
25/02:30am 8.7 WSW 3 5 1009.8 - 0.0 - - 10 - - - -
25/02:00am 9.2 WSW 5 8 1009.7 - 0.0 - - 10 - - - -
25/01:30am 9.3 WSW 5 8 1009.9 - 0.0 - Cloudy 10 - - - -
25/01:00am 9.6 WSW 5 11 1010.1 - 0.0 - Cloudy 10 - - - -
25/12:30am 9.8 WSW 6 9 1010.2 - 0.0 - Cloudy 10 - - - -
25/12:00am 9.5 SW 6 11 1010.4 - 0.0 - Cloudy 10 - - - -
 
Date/Time
EST
Temp
°C
Wind Pressure Rain since
9am
mm
Weather Cloud Vis
km
Sea
Height
m
Swell
Dir  Spd
kts
Gust
kts
hPa Trend Height
m
Period
s
Dir
24/11:30pm 9.1 WSW 5 8 1010.7 - 0.0 - Cloudy 10 - - - -
24/11:00pm 8.0 CALM 0 0 1010.6 - 0.0 - Partly cloudy 10 - - - -
24/10:30pm 8.2 CALM 0 0 1010.9 - 0.0 - Cloudy 10 - - - -
24/10:00pm 9.2 SSW 1 4 1011.2 - 0.0 - Cloudy 10 - - - -
24/09:30pm 9.5 SW 4 7 1011.4 - 0.0 - Cloudy 10 - - - -
24/09:00pm 9.9 SW 4 6 1011.5 - 0.0 - Cloudy 10 - - - -
24/08:30pm 10.2 SW 6 7 1011.5 - 0.0 - Partly cloudy 10 - - - -
24/08:00pm 10.4 SW 5 7 1012.0 - 0.0 - Cloudy 10 - - - -
24/07:30pm 9.8 CALM 0 0 1011.9 - 0.0 - Partly cloudy 10 - - - -
24/07:00pm 10.1 CALM 0 0 1011.9 - 0.0 - Partly cloudy 10 - - - -
24/06:30pm 10.3 CALM 0 0 1011.7 - 0.0 - Partly cloudy 10 - - - -
24/06:00pm 10.8 CALM 0 0 1011.6 - 0.0 - Cloudy 10 - - - -
24/05:30pm 11.6 SSW 1 3 1011.5 - 0.0 - Cloudy 10 - - - -
24/05:00pm 12.1 SSE 5 7 1011.4 - 0.0 - Cloudy 10 - - - -
24/04:30pm 12.4 SE 5 8 1011.2 - 0.0 - Partly cloudy 10 - - - -
24/04:00pm 12.4 SE 5 8 1011.1 - 0.0 - Partly cloudy 10 - - - -
24/03:30pm 12.6 SE 5 7 1011.4 - 0.0 - Partly cloudy 10 - - - -
24/03:00pm 12.8 SE 5 7 1011.6 - 0.0 - Cloudy 10 - - - -
24/02:30pm 12.7 SE 3 6 1011.8 - 0.0 - Cloudy 10 - - - -
24/02:00pm 13.0 SE 5 6 1011.9 - 0.0 - Partly cloudy 10 - - - -
24/01:30pm 13.4 E 4 7 1012.0 - 0.0 - Partly cloudy 10 - - - -
24/01:00pm 13.1 E 4 6 1012.4 - 0.0 - Partly cloudy 10 - - - -
24/12:30pm 12.8 E 5 7 1013.0 - 0.0 - Partly cloudy 10 - - - -
24/12:00pm 13.2 E 5 8 1013.6 - 0.0 - Mostly clear 10 - - - -
24/11:30am 14.0 E 6 9 1014.2 - 0.0 - - 10 - - - -
24/11:00am 14.8 E 4 6 1014.6 - 0.0 - - 10 - - - -
24/10:30am 14.9 SE 3 5 1015.0 - 0.0 - - 10 - - - -
24/10:00am 13.4 W 3 5 1015.3 - 0.0 - - 10 - - - -
24/09:30am 12.3 WNW 1 5 1015.6 - 0.0 - - 10 - - - -
24/09:00am 10.5 CALM 0 0 1015.8 - 0.0 - - 10 - - - -
24/08:30am 8.4 CALM 0 0 1015.7 - 0.0 - - 10 - - - -
24/08:00am 5.9 CALM 0 0 1015.8 - 0.0 - - 10 - - - -
24/07:30am 4.3 W 2 5 1016.2 - 0.0 - - 10 - - - -
24/07:00am 2.1 WSW 4 5 1016.2 - 0.0 - - 10 - - - -
24/06:30am 1.8 W 2 5 1016.0 - 0.0 - - 10 - - - -
24/06:00am 2.0 CALM 0 0 1015.9 - 0.0 - - 10 - - - -
24/05:30am 2.7 W 4 6 1015.6 - 0.0 - - 10 - - - -
24/05:00am 2.8 SSW 5 6 1015.4 - 0.0 - - 10 - - - -
24/04:30am 3.0 SW 5 6 1015.5 - 0.0 - - 10 - - - -
24/04:00am 3.4 SW 5 6 1015.7 - 0.0 - - 10 - - - -
24/03:30am 3.1 SSW 5 6 1016.0 - 0.0 - - 10 - - - -
24/03:00am 3.1 SSW 6 7 1016.2 - 0.0 - - 10 - - - -
24/02:30am 4.3 WNW 6 8 1016.5 - 0.0 - - 10 - - - -
24/02:00am 2.4 WSW 4 5 1016.8 - 0.0 - - 10 - - - -
24/01:30am 2.9 CALM 0 0 1017.2 - 0.0 - - 10 - - - -
24/01:00am 2.7 CALM 0 0 1017.5 - 0.0 - - 10 - - - -
24/12:30am 3.1 W 3 4 1017.7 - 0.0 - - 10 - - - -
24/12:00am 3.0 CALM 0 0 1017.9 - 0.0 - - 10 - - - -
 
Date/Time
EST
Temp
°C
Wind Pressure Rain since
9am
mm
Weather Cloud Vis
km
Sea
Height
m
Swell
Dir  Spd
kts
Gust
kts
hPa Trend Height
m
Period
s
Dir
23/11:30pm 3.3 CALM 0 0 1017.9 - 0.0 - - 10 - - - -
23/11:00pm 3.5 CALM 0 0 1017.7 - 0.0 - - 10 - - - -
23/10:30pm 3.1 CALM 0 0 1017.7 - 0.0 - - 10 - - - -
23/10:00pm 4.1 CALM 0 0 1017.6 - 0.0 - - 10 - - - -
23/09:30pm 4.8 CALM 0 0 1017.7 - 0.0 - - 10 - - - -
23/09:00pm 4.6 WNW 3 5 1017.8 - 0.0 - - 10 - - - -
23/08:30pm 5.3 S 2 6 1017.5 - 0.0 - - 10 - - - -
23/08:00pm 5.4 CALM 0 3 1017.4 - 0.0 - - 10 - - - -
23/07:30pm 6.8 SSW 5 5 1016.9 - 0.0 - - 10 - - - -
23/07:00pm 7.7 SSW 5 5 1016.6 - 0.0 - - 10 - - - -
23/06:30pm 9.3 SW 5 6 1016.3 - 0.0 - - 10 - - - -
23/06:00pm 10.2 S 6 9 1016.3 - 0.0 - - 10 - - - -
23/05:30pm 11.3 S 6 8 1016.2 - 0.0 - - 10 - - - -
23/05:00pm 13.0 SSW 9 14 1015.9 - 0.0 - - 10 - - - -
23/04:30pm 13.7 SSW 10 16 1015.1 - 0.0 - - 10 - - - -
23/04:00pm 14.8 SSW 9 14 1014.9 - 0.0 - - 10 - - - -
23/03:30pm 14.6 S 11 16 1014.5 - 0.0 - - 10 - - - -
23/03:00pm 13.8 S 9 14 1014.6 - 0.0 - Cloudy 10 - - - -
23/02:30pm 13.5 S 9 14 1015.0 - 0.0 - Cloudy 10 - - - -
23/02:00pm 15.2 SSW 7 14 1014.7 - 0.0 - Partly cloudy 10 - - - -
23/01:30pm 13.8 WSW 7 11 1014.8 - 0.0 - Partly cloudy 10 - - - -
23/01:00pm 14.1 SW 8 12 1014.8 - 0.0 - Partly cloudy 10 - - - -
23/12:30pm 14.3 SSW 8 13 1014.8 - 0.0 - Partly cloudy 10 - - - -
23/12:00pm 14.7 S 9 14 1015.0 - 0.0 - Partly cloudy 10 - - - -
23/11:30am 14.2 SW 10 15 1015.3 - 0.0 - Partly cloudy 10 - - - -
23/11:00am 13.1 SW 10 19 1015.5 - 0.0 - - 10 - - - -
23/10:30am 12.7 SW 9 17 1015.5 - 0.0 - Partly cloudy 10 - - - -
23/10:00am 12.2 SW 8 13 1015.6 - 0.0 - Partly cloudy 10 - - - -

Other Formats:

Comma delimited format used in spreadsheet applications
http://www.bom.gov.au/fwo/IDN60701/IDN60701.95929.axf

JavaScript Object Notation format (JSON) in row-major order
http://www.bom.gov.au/fwo/IDN60701/IDN60701.95929.json